createdAt,value
2022-12-07T00:00:02.774Z,98130.00
2022-12-07T00:00:12.266Z,98132.00
2022-12-07T00:00:22.289Z,98130.00
2022-12-07T00:00:32.337Z,98132.00
2022-12-07T00:00:43.747Z,98128.00
2022-12-07T00:00:52.594Z,98132.00
2022-12-07T00:01:02.807Z,98132.00
2022-12-07T00:01:12.848Z,98132.00
2022-12-07T00:01:22.778Z,98132.00
2022-12-07T00:01:32.817Z,98128.00
2022-12-07T00:01:42.912Z,98132.00
2022-12-07T00:01:52.928Z,98128.00
2022-12-07T00:02:02.916Z,98132.00
2022-12-07T00:02:12.670Z,98130.00
2022-12-07T00:02:23.019Z,98130.00
2022-12-07T00:02:33.031Z,98134.00
2022-12-07T00:02:42.781Z,98130.00
2022-12-07T00:02:52.302Z,98128.00
2022-12-07T00:03:02.760Z,98134.00
2022-12-07T00:03:12.929Z,98130.00
2022-12-07T00:03:22.396Z,98132.00
2022-12-07T00:03:32.312Z,98130.00
2022-12-07T00:03:43.052Z,98132.00
2022-12-07T00:03:52.963Z,98130.00
2022-12-07T00:04:02.953Z,98130.00
2022-12-07T00:04:12.976Z,98134.00
2022-12-07T00:04:22.247Z,98130.00
2022-12-07T00:04:32.259Z,98132.00
2022-12-07T00:04:42.252Z,98134.00
2022-12-07T00:04:53.019Z,98132.00
2022-12-07T00:05:03.037Z,98130.00
2022-12-07T00:05:13.024Z,98130.00
2022-12-07T00:05:22.228Z,98132.00
2022-12-07T00:05:32.359Z,98130.00
2022-12-07T00:05:42.230Z,98132.00
2022-12-07T00:05:52.369Z,98128.00
2022-12-07T00:06:02.219Z,98128.00
2022-12-07T00:06:13.089Z,98132.00
2022-12-07T00:06:23.670Z,98132.00
2022-12-07T00:06:33.058Z,98134.00
2022-12-07T00:06:43.674Z,98130.00
2022-12-07T00:06:52.250Z,98128.00
2022-12-07T00:07:03.072Z,98132.00
2022-12-07T00:07:12.219Z,98134.00
2022-12-07T00:07:27.558Z,98130.00
2022-12-07T00:07:32.349Z,98130.00
2022-12-07T00:07:42.247Z,98130.00
2022-12-07T00:07:52.261Z,98128.00
2022-12-07T00:08:03.782Z,98134.00
2022-12-07T00:08:13.726Z,98130.00
2022-12-07T00:08:23.792Z,98130.00
2022-12-07T00:08:33.700Z,98128.00
2022-12-07T00:08:42.228Z,98124.00
2022-12-07T00:08:53.688Z,98130.00
2022-12-07T00:09:02.259Z,98128.00
2022-12-07T00:09:13.190Z,98128.00
2022-12-07T00:09:22.263Z,98132.00
2022-12-07T00:09:33.690Z,98130.00
2022-12-07T00:09:42.210Z,98128.00
2022-12-07T00:09:53.696Z,98128.00
2022-12-07T00:10:02.465Z,98126.00
2022-12-07T00:10:12.229Z,98126.00
2022-12-07T00:10:22.217Z,98128.00
2022-12-07T00:10:33.679Z,98128.00
2022-12-07T00:10:42.237Z,98128.00
2022-12-07T00:10:53.666Z,98124.00
2022-12-07T00:11:02.190Z,98124.00
2022-12-07T00:11:12.211Z,98122.00
2022-12-07T00:11:22.240Z,98124.00
2022-12-07T00:11:33.637Z,98128.00
2022-12-07T00:11:42.229Z,98124.00
2022-12-07T00:11:52.256Z,98126.00
2022-12-07T00:12:02.209Z,98128.00
2022-12-07T00:12:12.219Z,98126.00
2022-12-07T00:12:22.210Z,98124.00
2022-12-07T00:12:32.214Z,98126.00
2022-12-07T00:12:42.216Z,98126.00
2022-12-07T00:12:52.179Z,98124.00
2022-12-07T00:13:03.676Z,98122.00
2022-12-07T00:13:12.319Z,98124.00
2022-12-07T00:13:22.246Z,98122.00
2022-12-07T00:13:32.280Z,98124.00
2022-12-07T00:13:42.310Z,98124.00
2022-12-07T00:13:52.181Z,98122.00
2022-12-07T00:14:02.281Z,98124.00
2022-12-07T00:14:12.319Z,98121.00
2022-12-07T00:14:22.255Z,98121.00
2022-12-07T00:14:32.288Z,98119.00
2022-12-07T00:14:42.318Z,98121.00
2022-12-07T00:14:52.258Z,98119.00
2022-12-07T00:15:02.160Z,98119.00
2022-12-07T00:15:13.639Z,98119.00
2022-12-07T00:15:23.620Z,98117.00
2022-12-07T00:15:32.200Z,98121.00
2022-12-07T00:15:42.161Z,98119.00
2022-12-07T00:15:52.209Z,98119.00
2022-12-07T00:16:02.221Z,98119.00
2022-12-07T00:16:12.223Z,98119.00
2022-12-07T00:16:22.420Z,98119.00
2022-12-07T00:16:32.320Z,98121.00
2022-12-07T00:16:43.686Z,98119.00
2022-12-07T00:16:52.458Z,98119.00
2022-12-07T00:17:02.385Z,98117.00
2022-12-07T00:17:12.160Z,98117.00
2022-12-07T00:17:22.181Z,98119.00
2022-12-07T00:17:32.321Z,98119.00
2022-12-07T00:17:43.594Z,98119.00
2022-12-07T00:17:52.171Z,98119.00
2022-12-07T00:18:02.246Z,98121.00
2022-12-07T00:18:13.650Z,98115.00
2022-12-07T00:18:22.190Z,98115.00
2022-12-07T00:18:33.621Z,98117.00
2022-12-07T00:18:43.118Z,98115.00
2022-12-07T00:18:52.199Z,98121.00
2022-12-07T00:19:02.206Z,98119.00
2022-12-07T00:19:12.180Z,98117.00
2022-12-07T00:19:22.171Z,98115.00
2022-12-07T00:19:33.645Z,98115.00
2022-12-07T00:19:43.609Z,98117.00
2022-12-07T00:19:53.110Z,98119.00
2022-12-07T00:20:03.968Z,98117.00
2022-12-07T00:20:12.160Z,98111.00
2022-12-07T00:20:23.600Z,98119.00
2022-12-07T00:20:33.173Z,98115.00
2022-12-07T00:20:42.150Z,98115.00
2022-12-07T00:20:52.197Z,98119.00
2022-12-07T00:21:03.598Z,98117.00
2022-12-07T00:21:13.130Z,98119.00
2022-12-07T00:21:23.600Z,98115.00
2022-12-07T00:21:33.595Z,98113.00
2022-12-07T00:21:42.270Z,98115.00
2022-12-07T00:21:52.123Z,98115.00
2022-12-07T00:22:02.177Z,98117.00
2022-12-07T00:22:12.163Z,98115.00
2022-12-07T00:22:22.130Z,98115.00
2022-12-07T00:22:32.161Z,98111.00
2022-12-07T00:22:43.581Z,98113.00
2022-12-07T00:22:52.157Z,98115.00
2022-12-07T00:23:02.141Z,98115.00
2022-12-07T00:23:13.600Z,98111.00
2022-12-07T00:23:22.132Z,98115.00
2022-12-07T00:23:32.464Z,98111.00
2022-12-07T00:23:42.102Z,98111.00
2022-12-07T00:23:52.150Z,98113.00
2022-12-07T00:24:02.159Z,98101.00
2022-12-07T00:24:12.140Z,98109.00
2022-12-07T00:24:22.420Z,98113.00
2022-12-07T00:24:32.114Z,98109.00
2022-12-07T00:24:42.174Z,98115.00
2022-12-07T00:24:52.436Z,98107.00
2022-12-07T00:25:02.109Z,98109.00
2022-12-07T00:25:13.620Z,98107.00
2022-12-07T00:25:23.064Z,98111.00
2022-12-07T00:25:33.632Z,98107.00
2022-12-07T00:25:42.111Z,98113.00
2022-12-07T00:25:52.160Z,98103.00
2022-12-07T00:26:03.574Z,98103.00
2022-12-07T00:26:13.569Z,98105.00
2022-12-07T00:26:22.112Z,98103.00
2022-12-07T00:26:32.128Z,98109.00
2022-12-07T00:26:43.566Z,98105.00
2022-12-07T00:26:53.568Z,98103.00
2022-12-07T00:27:02.141Z,98107.00
2022-12-07T00:27:12.127Z,98105.00
2022-12-07T00:27:23.554Z,98107.00
2022-12-07T00:27:32.123Z,98103.00
2022-12-07T00:27:43.093Z,98101.00
2022-12-07T00:27:53.562Z,98103.00
2022-12-07T00:28:02.124Z,98105.00
2022-12-07T00:28:12.130Z,98107.00
2022-12-07T00:28:22.103Z,98109.00
2022-12-07T00:28:33.011Z,98105.00
2022-12-07T00:28:42.092Z,98101.00
2022-12-07T00:28:53.610Z,98101.00
2022-12-07T00:29:03.069Z,98103.00
2022-12-07T00:29:13.548Z,98105.00
2022-12-07T00:29:22.101Z,98107.00
2022-12-07T00:29:32.089Z,98101.00
2022-12-07T00:29:42.102Z,98103.00
2022-12-07T00:29:52.125Z,98105.00
2022-12-07T00:30:04.077Z,98103.00
2022-12-07T00:30:13.540Z,98105.00
2022-12-07T00:30:22.113Z,98101.00
2022-12-07T00:30:32.112Z,98103.00
2022-12-07T00:30:43.529Z,98103.00
2022-12-07T00:30:52.092Z,98103.00
2022-12-07T00:31:03.554Z,98101.00
2022-12-07T00:31:12.072Z,98103.00
2022-12-07T00:31:23.618Z,98107.00
2022-12-07T00:31:33.588Z,98105.00
2022-12-07T00:31:42.141Z,98109.00
2022-12-07T00:31:52.140Z,98105.00
2022-12-07T00:32:02.293Z,98107.00
2022-12-07T00:32:12.161Z,98105.00
2022-12-07T00:32:23.521Z,98103.00
2022-12-07T00:32:32.072Z,98103.00
2022-12-07T00:32:42.083Z,98107.00
2022-12-07T00:32:52.103Z,98105.00
2022-12-07T00:33:02.062Z,98105.00
2022-12-07T00:33:12.098Z,98105.00
2022-12-07T00:33:23.514Z,98099.00
2022-12-07T00:33:32.071Z,98101.00
2022-12-07T00:33:42.063Z,98101.00
2022-12-07T00:33:52.064Z,98103.00
2022-12-07T00:34:02.072Z,98101.00
2022-12-07T00:34:13.503Z,98105.00
2022-12-07T00:34:22.073Z,98103.00
2022-12-07T00:34:32.052Z,98103.00
2022-12-07T00:34:43.517Z,98103.00
2022-12-07T00:34:53.520Z,98105.00
2022-12-07T00:35:02.047Z,98105.00
2022-12-07T00:35:13.512Z,98103.00
2022-12-07T00:35:23.501Z,98107.00
2022-12-07T00:35:32.052Z,98103.00
2022-12-07T00:35:43.523Z,98105.00
2022-12-07T00:35:53.023Z,98107.00
2022-12-07T00:36:02.073Z,98109.00
2022-12-07T00:36:13.043Z,98109.00
2022-12-07T00:36:26.639Z,98109.00
2022-12-07T00:36:33.492Z,98107.00
2022-12-07T00:36:42.040Z,98113.00
2022-12-07T00:36:52.052Z,98109.00
2022-12-07T00:37:02.962Z,98107.00
2022-12-07T00:37:13.511Z,98109.00
2022-12-07T00:37:22.034Z,98109.00
2022-12-07T00:37:32.039Z,98107.00
2022-12-07T00:37:42.044Z,98111.00
2022-12-07T00:37:52.884Z,98109.00
2022-12-07T00:38:02.033Z,98109.00
2022-12-07T00:38:13.493Z,98111.00
2022-12-07T00:38:22.014Z,98111.00
2022-12-07T00:38:32.023Z,98111.00
2022-12-07T00:38:42.031Z,98109.00
2022-12-07T00:38:52.041Z,98109.00
2022-12-07T00:39:02.069Z,98109.00
2022-12-07T00:39:12.032Z,98109.00
2022-12-07T00:39:23.492Z,98107.00
2022-12-07T00:39:32.022Z,98111.00
2022-12-07T00:39:43.467Z,98107.00
2022-12-07T00:39:52.038Z,98109.00
2022-12-07T00:40:02.366Z,98109.00
2022-12-07T00:40:13.501Z,98103.00
2022-12-07T00:40:22.013Z,98105.00
2022-12-07T00:40:32.035Z,98101.00
2022-12-07T00:40:42.706Z,98101.00
2022-12-07T00:40:51.995Z,98103.00
2022-12-07T00:41:02.003Z,98107.00
2022-12-07T00:41:12.033Z,98103.00
2022-12-07T00:41:22.139Z,98107.00
2022-12-07T00:41:32.794Z,98101.00
2022-12-07T00:41:42.204Z,98105.00
2022-12-07T00:41:51.983Z,98103.00
2022-12-07T00:42:02.785Z,98107.00
2022-12-07T00:42:12.003Z,98103.00
2022-12-07T00:42:21.994Z,98105.00
2022-12-07T00:42:33.475Z,98101.00
2022-12-07T00:42:42.838Z,98103.00
2022-12-07T00:42:52.754Z,98103.00
2022-12-07T00:43:02.573Z,98101.00
2022-12-07T00:43:12.828Z,98103.00
2022-12-07T00:43:21.983Z,98105.00
2022-12-07T00:43:32.003Z,98103.00
2022-12-07T00:43:42.007Z,98103.00
2022-12-07T00:43:52.863Z,98103.00
2022-12-07T00:44:03.432Z,98103.00
2022-12-07T00:44:11.982Z,98101.00
2022-12-07T00:44:22.864Z,98099.00
2022-12-07T00:44:32.922Z,98099.00
2022-12-07T00:44:43.414Z,98101.00
2022-12-07T00:44:52.874Z,98101.00
2022-12-07T00:45:03.415Z,98101.00
2022-12-07T00:45:13.436Z,98101.00
2022-12-07T00:45:21.965Z,98097.00
2022-12-07T00:45:32.928Z,98095.00
2022-12-07T00:45:41.996Z,98097.00
2022-12-07T00:45:52.925Z,98101.00
2022-12-07T00:46:03.502Z,98095.00
2022-12-07T00:46:13.001Z,98095.00
2022-12-07T00:46:23.474Z,98095.00
2022-12-07T00:46:33.502Z,98095.00
2022-12-07T00:46:41.974Z,98095.00
2022-12-07T00:46:53.414Z,98099.00
2022-12-07T00:47:02.002Z,98093.00
2022-12-07T00:47:12.034Z,98093.00
2022-12-07T00:47:21.977Z,98097.00
2022-12-07T00:47:33.442Z,98095.00
2022-12-07T00:47:41.944Z,98095.00
2022-12-07T00:47:53.433Z,98095.00
2022-12-07T00:48:01.964Z,98095.00
2022-12-07T00:48:11.965Z,98095.00
2022-12-07T00:48:21.975Z,98093.00
2022-12-07T00:48:31.980Z,98095.00
2022-12-07T00:48:41.959Z,98089.00
2022-12-07T00:48:51.966Z,98089.00
2022-12-07T00:49:01.972Z,98089.00
2022-12-07T00:49:13.406Z,98089.00
2022-12-07T00:49:21.978Z,98091.00
2022-12-07T00:49:31.926Z,98085.00
2022-12-07T00:49:41.976Z,98089.00
2022-12-07T00:49:53.443Z,98085.00
2022-12-07T00:50:02.197Z,98087.00
2022-12-07T00:50:11.944Z,98089.00
2022-12-07T00:50:21.956Z,98089.00
2022-12-07T00:50:31.978Z,98087.00
2022-12-07T00:50:42.011Z,98087.00
2022-12-07T00:50:53.392Z,98085.00
2022-12-07T00:51:01.963Z,98085.00
2022-12-07T00:51:11.947Z,98083.00
2022-12-07T00:51:21.935Z,98085.00
2022-12-07T00:51:33.394Z,98083.00
2022-12-07T00:51:42.077Z,98085.00
2022-12-07T00:51:51.916Z,98083.00
2022-12-07T00:52:01.934Z,98081.00
2022-12-07T00:52:13.415Z,98083.00
2022-12-07T00:52:21.950Z,98079.00
2022-12-07T00:52:31.936Z,98081.00
2022-12-07T00:52:41.967Z,98081.00
2022-12-07T00:52:51.964Z,98081.00
2022-12-07T00:53:01.968Z,98077.00
2022-12-07T00:53:13.385Z,98079.00
2022-12-07T00:53:23.373Z,98081.00
2022-12-07T00:53:35.490Z,98079.00
2022-12-07T00:53:42.894Z,98079.00
2022-12-07T00:53:51.914Z,98081.00
2022-12-07T00:54:03.397Z,98083.00
2022-12-07T00:54:11.946Z,98079.00
2022-12-07T00:54:23.386Z,98079.00
2022-12-07T00:54:32.868Z,98079.00
2022-12-07T00:54:41.925Z,98081.00
2022-12-07T00:54:53.363Z,98079.00
2022-12-07T00:55:03.398Z,98081.00
2022-12-07T00:55:11.898Z,98081.00
2022-12-07T00:55:21.906Z,98081.00
2022-12-07T00:55:31.913Z,98083.00
2022-12-07T00:55:43.380Z,98079.00
2022-12-07T00:55:53.348Z,98079.00
2022-12-07T00:56:01.916Z,98081.00
2022-12-07T00:56:11.907Z,98079.00
2022-12-07T00:56:21.906Z,98079.00
2022-12-07T00:56:32.476Z,98079.00
2022-12-07T00:56:41.888Z,98077.00
2022-12-07T00:56:51.981Z,98077.00
2022-12-07T00:57:01.909Z,98079.00
2022-12-07T00:57:12.245Z,98077.00
2022-12-07T00:57:22.807Z,98079.00
2022-12-07T00:57:32.476Z,98079.00
2022-12-07T00:57:43.325Z,98079.00
2022-12-07T00:57:52.875Z,98077.00
2022-12-07T00:58:01.887Z,98077.00
2022-12-07T00:58:12.545Z,98077.00
2022-12-07T00:58:21.876Z,98077.00
2022-12-07T00:58:31.896Z,98077.00
2022-12-07T00:58:41.898Z,98077.00
2022-12-07T00:58:53.346Z,98081.00
2022-12-07T00:59:01.881Z,98077.00
2022-12-07T00:59:11.896Z,98075.00
2022-12-07T00:59:23.377Z,98077.00
2022-12-07T00:59:31.892Z,98077.00
2022-12-07T00:59:41.897Z,98079.00
2022-12-07T00:59:53.356Z,98077.00
2022-12-07T01:00:03.083Z,98075.00
2022-12-07T01:00:11.895Z,98075.00
2022-12-07T01:00:23.344Z,98077.00
2022-12-07T01:00:31.888Z,98079.00
2022-12-07T01:00:43.318Z,98077.00
2022-12-07T01:00:51.868Z,98077.00
2022-12-07T01:01:01.950Z,98075.00
2022-12-07T01:01:11.959Z,98075.00
2022-12-07T01:01:21.955Z,98075.00
2022-12-07T01:01:32.010Z,98077.00
2022-12-07T01:01:42.037Z,98077.00
2022-12-07T01:01:51.940Z,98075.00
2022-12-07T01:02:01.876Z,98077.00
2022-12-07T01:02:11.887Z,98075.00
2022-12-07T01:02:21.858Z,98079.00
2022-12-07T01:02:31.856Z,98079.00
2022-12-07T01:02:43.339Z,98079.00
2022-12-07T01:02:51.848Z,98077.00
2022-12-07T01:03:01.938Z,98075.00
2022-12-07T01:03:11.923Z,98075.00
2022-12-07T01:03:21.945Z,98077.00
2022-12-07T01:03:31.932Z,98077.00
2022-12-07T01:03:41.978Z,98075.00
2022-12-07T01:03:51.857Z,98075.00
2022-12-07T01:04:01.877Z,98075.00
2022-12-07T01:04:11.846Z,98074.00
2022-12-07T01:04:21.866Z,98079.00
2022-12-07T01:04:31.847Z,98077.00
2022-12-07T01:04:41.857Z,98079.00
2022-12-07T01:04:51.859Z,98079.00
2022-12-07T01:05:01.838Z,98077.00
2022-12-07T01:05:11.838Z,98077.00
2022-12-07T01:05:21.850Z,98077.00
2022-12-07T01:05:31.845Z,98079.00
2022-12-07T01:05:41.847Z,98077.00
2022-12-07T01:05:51.850Z,98077.00
2022-12-07T01:06:01.845Z,98077.00
2022-12-07T01:06:11.848Z,98075.00
2022-12-07T01:06:21.872Z,98077.00
2022-12-07T01:06:33.289Z,98075.00
2022-12-07T01:06:41.863Z,98077.00
2022-12-07T01:06:51.830Z,98072.00
2022-12-07T01:07:02.645Z,98077.00
2022-12-07T01:07:11.852Z,98074.00
2022-12-07T01:07:21.869Z,98075.00
2022-12-07T01:07:31.822Z,98074.00
2022-12-07T01:07:41.877Z,98074.00
2022-12-07T01:07:52.143Z,98070.00
2022-12-07T01:08:02.194Z,98074.00
2022-12-07T01:08:12.162Z,98072.00
2022-12-07T01:08:23.290Z,98068.00
2022-12-07T01:08:31.810Z,98072.00
2022-12-07T01:08:41.868Z,98068.00
2022-12-07T01:08:51.827Z,98074.00
2022-12-07T01:09:01.853Z,98068.00
2022-12-07T01:09:11.831Z,98068.00
2022-12-07T01:09:22.120Z,98068.00
2022-12-07T01:09:32.147Z,98066.00
2022-12-07T01:09:42.185Z,98068.00
2022-12-07T01:09:52.219Z,98068.00
2022-12-07T01:10:02.478Z,98062.00
2022-12-07T01:10:12.186Z,98064.00
2022-12-07T01:10:21.777Z,98066.00
2022-12-07T01:10:32.261Z,98064.00
2022-12-07T01:10:41.987Z,98062.00
2022-12-07T01:10:52.227Z,98064.00
2022-12-07T01:11:01.793Z,98062.00
2022-12-07T01:11:12.188Z,98060.00
2022-12-07T01:11:22.232Z,98064.00
2022-12-07T01:11:32.279Z,98062.00
2022-12-07T01:11:42.105Z,98064.00
2022-12-07T01:11:52.228Z,98060.00
2022-12-07T01:12:02.270Z,98062.00
2022-12-07T01:12:11.808Z,98060.00
2022-12-07T01:12:22.360Z,98060.00
2022-12-07T01:12:32.268Z,98060.00
2022-12-07T01:12:42.312Z,98060.00
2022-12-07T01:12:52.243Z,98058.00
2022-12-07T01:13:02.077Z,98060.00
2022-12-07T01:13:12.309Z,98058.00
2022-12-07T01:13:22.346Z,98058.00
2022-12-07T01:13:32.168Z,98058.00
2022-12-07T01:13:42.309Z,98058.00
2022-12-07T01:13:52.349Z,98056.00
2022-12-07T01:14:02.379Z,98054.00
2022-12-07T01:14:12.108Z,98056.00
2022-12-07T01:14:21.775Z,98056.00
2022-12-07T01:14:32.389Z,98054.00
2022-12-07T01:14:42.422Z,98056.00
2022-12-07T01:14:52.357Z,98054.00
2022-12-07T01:15:02.398Z,98052.00
2022-12-07T01:15:11.759Z,98054.00
2022-12-07T01:15:21.757Z,98054.00
2022-12-07T01:15:32.498Z,98056.00
2022-12-07T01:15:41.751Z,98054.00
2022-12-07T01:15:51.751Z,98056.00
2022-12-07T01:16:01.793Z,98056.00
2022-12-07T01:16:11.770Z,98054.00
2022-12-07T01:16:21.849Z,98054.00
2022-12-07T01:16:31.875Z,98052.00
2022-12-07T01:16:41.870Z,98052.00
2022-12-07T01:16:51.793Z,98058.00
2022-12-07T01:17:01.836Z,98052.00
2022-12-07T01:17:11.928Z,98056.00
2022-12-07T01:17:21.749Z,98052.00
2022-12-07T01:17:31.740Z,98056.00
2022-12-07T01:17:41.830Z,98058.00
2022-12-07T01:17:51.868Z,98052.00
2022-12-07T01:18:01.749Z,98052.00
2022-12-07T01:18:11.828Z,98050.00
2022-12-07T01:18:21.871Z,98058.00
2022-12-07T01:18:31.756Z,98054.00
2022-12-07T01:18:41.772Z,98056.00
2022-12-07T01:18:51.866Z,98056.00
2022-12-07T01:19:03.190Z,98050.00
2022-12-07T01:19:11.770Z,98050.00
2022-12-07T01:19:21.981Z,98054.00
2022-12-07T01:19:33.199Z,98056.00
2022-12-07T01:19:42.708Z,98050.00
2022-12-07T01:19:51.983Z,98054.00
2022-12-07T01:20:02.070Z,98052.00
2022-12-07T01:20:13.217Z,98052.00
2022-12-07T01:20:21.750Z,98054.00
2022-12-07T01:20:31.751Z,98054.00
2022-12-07T01:20:43.220Z,98052.00
2022-12-07T01:20:51.740Z,98050.00
2022-12-07T01:21:03.243Z,98052.00
2022-12-07T01:21:13.189Z,98054.00
2022-12-07T01:21:23.220Z,98052.00
2022-12-07T01:21:33.179Z,98052.00
2022-12-07T01:21:41.741Z,98052.00
2022-12-07T01:21:51.792Z,98052.00
2022-12-07T01:22:03.204Z,98054.00
2022-12-07T01:22:11.770Z,98054.00
2022-12-07T01:22:21.769Z,98050.00
2022-12-07T01:22:31.729Z,98050.00
2022-12-07T01:22:41.793Z,98048.00
2022-12-07T01:22:51.699Z,98052.00
2022-12-07T01:23:01.752Z,98050.00
2022-12-07T01:23:11.740Z,98052.00
2022-12-07T01:23:21.743Z,98050.00
2022-12-07T01:23:31.739Z,98050.00
2022-12-07T01:23:41.769Z,98054.00
2022-12-07T01:23:51.723Z,98052.00
2022-12-07T01:24:01.740Z,98048.00
2022-12-07T01:24:11.713Z,98050.00
2022-12-07T01:24:21.740Z,98052.00
2022-12-07T01:24:33.178Z,98052.00
2022-12-07T01:24:41.724Z,98050.00
2022-12-07T01:24:53.171Z,98052.00
2022-12-07T01:25:01.748Z,98052.00
2022-12-07T01:25:11.712Z,98048.00
2022-12-07T01:25:21.712Z,98048.00
2022-12-07T01:25:31.719Z,98046.00
2022-12-07T01:25:41.711Z,98050.00
2022-12-07T01:25:51.720Z,98050.00
2022-12-07T01:26:01.710Z,98052.00
2022-12-07T01:26:11.711Z,98050.00
2022-12-07T01:26:21.721Z,98048.00
2022-12-07T01:26:31.718Z,98046.00
2022-12-07T01:26:41.711Z,98048.00
2022-12-07T01:26:51.704Z,98048.00
2022-12-07T01:27:01.720Z,98048.00
2022-12-07T01:27:11.712Z,98050.00
2022-12-07T01:27:21.720Z,98050.00
2022-12-07T01:27:33.121Z,98048.00
2022-12-07T01:27:41.681Z,98048.00
2022-12-07T01:27:53.139Z,98050.00
2022-12-07T01:28:03.121Z,98050.00
2022-12-07T01:28:13.120Z,98050.00
2022-12-07T01:28:22.641Z,98050.00
2022-12-07T01:28:33.134Z,98052.00
2022-12-07T01:28:41.680Z,98052.00
2022-12-07T01:28:51.710Z,98052.00
2022-12-07T01:29:01.821Z,98054.00
2022-12-07T01:29:11.681Z,98052.00
2022-12-07T01:29:21.692Z,98052.00
2022-12-07T01:29:33.190Z,98052.00
2022-12-07T01:29:41.681Z,98050.00
2022-12-07T01:29:53.152Z,98054.00
2022-12-07T01:30:01.992Z,98054.00
2022-12-07T01:30:13.133Z,98052.00
2022-12-07T01:30:21.671Z,98054.00
2022-12-07T01:30:31.799Z,98052.00
2022-12-07T01:30:41.703Z,98052.00
2022-12-07T01:30:51.731Z,98054.00
2022-12-07T01:31:03.209Z,98054.00
2022-12-07T01:31:11.715Z,98050.00
2022-12-07T01:31:23.224Z,98054.00
2022-12-07T01:31:31.654Z,98052.00
2022-12-07T01:31:41.670Z,98052.00
2022-12-07T01:31:51.672Z,98052.00
2022-12-07T01:32:03.111Z,98050.00
2022-12-07T01:32:12.651Z,98054.00
2022-12-07T01:32:21.660Z,98054.00
2022-12-07T01:32:33.121Z,98052.00
2022-12-07T01:32:41.682Z,98054.00
2022-12-07T01:32:53.109Z,98054.00
2022-12-07T01:33:01.662Z,98056.00
2022-12-07T01:33:11.652Z,98056.00
2022-12-07T01:33:21.682Z,98048.00
2022-12-07T01:33:32.663Z,98054.00
2022-12-07T01:33:41.642Z,98050.00
2022-12-07T01:33:51.653Z,98052.00
2022-12-07T01:34:01.653Z,98050.00
2022-12-07T01:34:11.671Z,98054.00
2022-12-07T01:34:23.113Z,98054.00
2022-12-07T01:34:33.113Z,98054.00
2022-12-07T01:34:41.832Z,98054.00
2022-12-07T01:34:51.622Z,98056.00
2022-12-07T01:35:01.642Z,98056.00
2022-12-07T01:35:11.662Z,98050.00
2022-12-07T01:35:21.934Z,98054.00
2022-12-07T01:35:31.630Z,98054.00
2022-12-07T01:35:41.623Z,98052.00
2022-12-07T01:35:51.891Z,98054.00
2022-12-07T01:36:01.616Z,98056.00
2022-12-07T01:36:13.105Z,98054.00
2022-12-07T01:36:21.642Z,98052.00
2022-12-07T01:36:31.923Z,98056.00
2022-12-07T01:36:41.624Z,98052.00
2022-12-07T01:36:53.093Z,98056.00
2022-12-07T01:37:01.612Z,98054.00
2022-12-07T01:37:11.976Z,98056.00
2022-12-07T01:37:23.044Z,98050.00
2022-12-07T01:37:31.632Z,98054.00
2022-12-07T01:37:43.091Z,98052.00
2022-12-07T01:37:51.666Z,98050.00
2022-12-07T01:38:01.622Z,98054.00
2022-12-07T01:38:11.620Z,98052.00
2022-12-07T01:38:21.622Z,98052.00
2022-12-07T01:38:31.629Z,98052.00
2022-12-07T01:38:43.063Z,98050.00
2022-12-07T01:38:52.407Z,98050.00
2022-12-07T01:39:01.625Z,98048.00
2022-12-07T01:39:11.627Z,98048.00
2022-12-07T01:39:21.613Z,98048.00
2022-12-07T01:39:31.633Z,98048.00
2022-12-07T01:39:41.574Z,98050.00
2022-12-07T01:39:51.583Z,98048.00
2022-12-07T01:40:01.919Z,98048.00
2022-12-07T01:40:11.581Z,98048.00
2022-12-07T01:40:21.603Z,98050.00
2022-12-07T01:40:31.617Z,98048.00
2022-12-07T01:40:41.671Z,98044.00
2022-12-07T01:40:51.619Z,98048.00
2022-12-07T01:41:01.653Z,98046.00
2022-12-07T01:41:11.611Z,98046.00
2022-12-07T01:41:21.711Z,98046.00
2022-12-07T01:41:31.653Z,98046.00
2022-12-07T01:41:43.034Z,98044.00
2022-12-07T01:41:53.043Z,98044.00
2022-12-07T01:42:01.603Z,98044.00
2022-12-07T01:42:11.683Z,98040.00
2022-12-07T01:42:23.024Z,98042.00
2022-12-07T01:42:32.564Z,98046.00
2022-12-07T01:42:41.692Z,98046.00
2022-12-07T01:42:53.035Z,98040.00
2022-12-07T01:43:01.754Z,98044.00
2022-12-07T01:43:11.794Z,98042.00
2022-12-07T01:43:23.023Z,98042.00
2022-12-07T01:43:31.766Z,98040.00
2022-12-07T01:43:41.804Z,98042.00
2022-12-07T01:43:51.575Z,98042.00
2022-12-07T01:44:01.594Z,98042.00
2022-12-07T01:44:11.585Z,98042.00
2022-12-07T01:44:23.053Z,98040.00
2022-12-07T01:44:31.597Z,98042.00
2022-12-07T01:44:41.587Z,98042.00
2022-12-07T01:44:51.582Z,98042.00
2022-12-07T01:45:01.575Z,98040.00
2022-12-07T01:45:11.576Z,98040.00
2022-12-07T01:45:21.596Z,98038.00
2022-12-07T01:45:31.573Z,98042.00
2022-12-07T01:45:43.087Z,98040.00
2022-12-07T01:45:51.615Z,98038.00
2022-12-07T01:46:01.605Z,98040.00
2022-12-07T01:46:11.601Z,98042.00
2022-12-07T01:46:23.052Z,98040.00
2022-12-07T01:46:32.536Z,98036.00
2022-12-07T01:46:41.577Z,98040.00
2022-12-07T01:46:51.552Z,98038.00
2022-12-07T01:47:01.565Z,98034.00
2022-12-07T01:47:13.023Z,98034.00
2022-12-07T01:47:22.496Z,98038.00
2022-12-07T01:47:31.574Z,98040.00
2022-12-07T01:47:41.562Z,98036.00
2022-12-07T01:47:53.006Z,98036.00
2022-12-07T01:48:01.545Z,98038.00
2022-12-07T01:48:13.014Z,98040.00
2022-12-07T01:48:23.002Z,98040.00
2022-12-07T01:48:32.515Z,98040.00
2022-12-07T01:48:43.004Z,98040.00
2022-12-07T01:48:52.465Z,98038.00
2022-12-07T01:49:01.564Z,98040.00
2022-12-07T01:49:11.554Z,98042.00
2022-12-07T01:49:21.535Z,98036.00
2022-12-07T01:49:31.553Z,98040.00
2022-12-07T01:49:42.385Z,98040.00
2022-12-07T01:49:51.552Z,98042.00
2022-12-07T01:50:02.000Z,98038.00
2022-12-07T01:50:13.004Z,98036.00
2022-12-07T01:50:21.527Z,98040.00
2022-12-07T01:50:31.916Z,98038.00
2022-12-07T01:50:42.972Z,98040.00
2022-12-07T01:50:52.984Z,98042.00
2022-12-07T01:51:02.495Z,98036.00
2022-12-07T01:51:11.538Z,98038.00
2022-12-07T01:51:22.984Z,98040.00
2022-12-07T01:51:31.551Z,98038.00
2022-12-07T01:51:42.004Z,98040.00
2022-12-07T01:51:52.992Z,98036.00
2022-12-07T01:52:01.935Z,98036.00
2022-12-07T01:52:12.972Z,98038.00
2022-12-07T01:52:21.515Z,98038.00
2022-12-07T01:52:31.555Z,98040.00
2022-12-07T01:52:42.983Z,98038.00
2022-12-07T01:52:52.966Z,98038.00
2022-12-07T01:53:01.545Z,98040.00
2022-12-07T01:53:11.516Z,98036.00
2022-12-07T01:53:22.007Z,98038.00
2022-12-07T01:53:31.494Z,98034.00
2022-12-07T01:53:42.075Z,98038.00
2022-12-07T01:53:51.494Z,98038.00
2022-12-07T01:54:02.045Z,98036.00
2022-12-07T01:54:11.489Z,98036.00
2022-12-07T01:54:21.534Z,98036.00
2022-12-07T01:54:31.535Z,98036.00
2022-12-07T01:54:41.504Z,98038.00
2022-12-07T01:54:52.975Z,98036.00
2022-12-07T01:55:02.984Z,98040.00
2022-12-07T01:55:12.992Z,98036.00
2022-12-07T01:55:22.125Z,98036.00
2022-12-07T01:55:32.934Z,98036.00
2022-12-07T01:55:41.485Z,98034.00
2022-12-07T01:55:52.964Z,98034.00
2022-12-07T01:56:01.504Z,98038.00
2022-12-07T01:56:11.514Z,98036.00
2022-12-07T01:56:21.525Z,98036.00
2022-12-07T01:56:32.498Z,98036.00
2022-12-07T01:56:42.936Z,98038.00
2022-12-07T01:56:51.497Z,98036.00
2022-12-07T01:57:02.953Z,98036.00
2022-12-07T01:57:11.506Z,98030.00
2022-12-07T01:57:21.535Z,98034.00